createdAt,value
2023-01-08T00:01:26.147Z,91.94
2023-01-08T00:03:54.621Z,90.81
2023-01-08T00:06:22.915Z,91.24
2023-01-08T00:08:50.940Z,93.72
2023-01-08T00:11:19.362Z,93.11
2023-01-08T00:13:47.341Z,92.69
2023-01-08T00:16:17.254Z,92.50
2023-01-08T00:18:47.106Z,91.63
2023-01-08T00:21:15.223Z,90.29
2023-01-08T00:23:43.181Z,91.97
2023-01-08T00:26:12.013Z,92.94
2023-01-08T00:28:40.357Z,91.90
2023-01-08T00:31:10.321Z,91.50
2023-01-08T00:33:39.806Z,90.63
2023-01-08T00:36:09.853Z,92.38
2023-01-08T00:38:38.259Z,92.29
2023-01-08T00:41:06.368Z,91.97
2023-01-08T00:43:34.492Z,89.62
2023-01-08T00:46:03.284Z,89.95
2023-01-08T00:48:31.620Z,91.56
2023-01-08T00:51:02.292Z,89.30
2023-01-08T00:53:30.671Z,91.87
2023-01-08T00:56:07.058Z,90.30
2023-01-08T00:58:35.624Z,90.49
2023-01-08T01:01:10.453Z,93.25
2023-01-08T01:03:38.869Z,92.23
2023-01-08T01:06:07.855Z,93.00
2023-01-08T01:08:35.910Z,94.67
2023-01-08T01:11:13.218Z,94.12
2023-01-08T01:13:41.341Z,95.06
2023-01-08T01:16:09.643Z,95.57
2023-01-08T01:18:37.570Z,94.94
2023-01-08T01:21:13.751Z,92.86
2023-01-08T01:23:42.097Z,92.60
2023-01-08T01:26:21.100Z,92.70
2023-01-08T01:28:54.972Z,93.00
2023-01-08T01:31:23.994Z,92.17
2023-01-08T01:33:52.322Z,92.59
2023-01-08T01:36:23.841Z,93.62
2023-01-08T01:38:54.373Z,91.84
2023-01-08T01:41:25.572Z,93.33
2023-01-08T01:43:54.533Z,91.95
2023-01-08T01:46:24.882Z,92.78
2023-01-08T01:48:56.168Z,94.06
2023-01-08T01:51:27.774Z,91.64
2023-01-08T01:53:55.774Z,92.88
2023-01-08T01:56:23.983Z,93.48
2023-01-08T01:58:52.276Z,92.50
2023-01-08T02:01:20.432Z,93.29
2023-01-08T02:03:48.901Z,94.22
2023-01-08T02:06:20.163Z,94.23
2023-01-08T02:09:26.632Z,93.91
2023-01-08T02:12:19.189Z,93.78
2023-01-08T02:15:24.321Z,94.06
2023-01-08T02:17:58.450Z,94.47
2023-01-08T02:20:34.499Z,92.75
2023-01-08T02:23:21.755Z,90.99
2023-01-08T02:25:52.602Z,92.15
2023-01-08T02:28:22.284Z,92.17
2023-01-08T02:30:50.351Z,95.12
2023-01-08T02:33:18.263Z,93.26
2023-01-08T02:35:53.123Z,93.01
2023-01-08T02:38:22.049Z,92.53
2023-01-08T02:41:19.473Z,92.33
2023-01-08T02:43:50.782Z,91.78
2023-01-08T02:46:23.969Z,92.70
2023-01-08T02:48:56.182Z,92.79
2023-01-08T02:51:44.026Z,90.75
2023-01-08T02:54:17.591Z,91.24
2023-01-08T02:56:57.376Z,92.40
2023-01-08T02:59:26.551Z,92.55
2023-01-08T03:01:55.917Z,93.13
2023-01-08T03:04:25.082Z,91.26
2023-01-08T03:06:53.037Z,92.55
2023-01-08T03:09:21.493Z,91.77
2023-01-08T03:11:57.182Z,92.86
2023-01-08T03:14:29.033Z,92.86
2023-01-08T03:17:25.151Z,91.10
2023-01-08T03:20:08.673Z,90.60
2023-01-08T03:22:39.598Z,88.88
2023-01-08T03:25:09.119Z,88.50
2023-01-08T03:27:41.395Z,88.95
2023-01-08T03:30:10.958Z,90.01
2023-01-08T03:32:41.621Z,92.51
2023-01-08T03:35:12.427Z,91.11
2023-01-08T03:37:45.672Z,89.81
2023-01-08T03:40:24.332Z,89.09
2023-01-08T03:42:52.316Z,89.31
2023-01-08T03:45:22.314Z,91.93
2023-01-08T03:47:50.798Z,93.44
2023-01-08T03:50:22.962Z,91.79
2023-01-08T03:52:51.214Z,91.78
2023-01-08T03:55:19.343Z,92.26
2023-01-08T03:57:47.273Z,89.82
2023-01-08T04:00:16.105Z,92.49
2023-01-08T04:02:44.503Z,92.54
2023-01-08T04:05:12.751Z,90.30
2023-01-08T04:07:40.862Z,89.39
2023-01-08T04:10:09.161Z,91.03
2023-01-08T04:12:37.121Z,91.56
2023-01-08T04:15:05.510Z,92.45
2023-01-08T04:17:33.929Z,93.16
2023-01-08T04:20:01.926Z,92.57
2023-01-08T04:22:29.909Z,92.28
2023-01-08T04:24:58.201Z,92.01
2023-01-08T04:27:26.398Z,91.26
2023-01-08T04:29:54.381Z,92.53
2023-01-08T04:32:22.789Z,93.11
2023-01-08T04:34:50.665Z,93.75
2023-01-08T04:37:18.653Z,93.33
2023-01-08T04:39:46.954Z,92.67
2023-01-08T04:42:14.934Z,91.06
2023-01-08T04:44:42.848Z,91.69
2023-01-08T04:47:11.245Z,92.42
2023-01-08T04:49:39.226Z,92.90
2023-01-08T04:52:07.242Z,92.46
2023-01-08T04:54:35.569Z,92.89
2023-01-08T04:57:03.463Z,92.38
2023-01-08T04:59:31.431Z,92.19
2023-01-08T05:01:59.961Z,92.11
2023-01-08T05:04:28.017Z,92.57
2023-01-08T05:06:56.003Z,92.22
2023-01-08T05:09:24.310Z,92.79
2023-01-08T05:11:52.206Z,96.59
2023-01-08T05:14:20.175Z,94.35
2023-01-08T05:16:48.467Z,93.99
2023-01-08T05:19:16.809Z,90.55
2023-01-08T05:21:44.823Z,92.11
2023-01-08T05:24:13.132Z,93.53
2023-01-08T05:26:41.203Z,92.15
2023-01-08T05:29:10.613Z,92.27
2023-01-08T05:31:38.997Z,91.18
2023-01-08T05:34:07.109Z,91.27
2023-01-08T05:36:35.140Z,91.06
2023-01-08T05:39:04.161Z,93.43
2023-01-08T05:41:32.121Z,93.77
2023-01-08T05:44:01.018Z,92.40
2023-01-08T05:46:29.442Z,90.43
2023-01-08T05:48:58.046Z,93.19
2023-01-08T05:51:25.987Z,93.26
2023-01-08T05:53:54.386Z,91.46
2023-01-08T05:56:22.392Z,90.85
2023-01-08T05:58:50.406Z,91.87
2023-01-08T06:01:18.836Z,91.27
2023-01-08T06:03:47.507Z,91.70
2023-01-08T06:06:16.906Z,91.62
2023-01-08T06:08:44.905Z,90.17
2023-01-08T06:11:13.799Z,91.86
2023-01-08T06:13:43.542Z,91.46
2023-01-08T06:16:12.324Z,90.97
2023-01-08T06:18:40.631Z,90.74
2023-01-08T06:21:09.533Z,91.02
2023-01-08T06:23:37.355Z,90.72
2023-01-08T06:26:05.806Z,92.43
2023-01-08T06:28:33.917Z,92.14
2023-01-08T06:31:02.268Z,93.46
2023-01-08T06:33:31.104Z,89.86
2023-01-08T06:36:04.699Z,93.94
2023-01-08T06:38:34.285Z,91.62
2023-01-08T06:41:06.902Z,91.41
2023-01-08T06:43:36.067Z,94.25
2023-01-08T06:46:05.946Z,92.74
2023-01-08T06:48:33.987Z,91.85
2023-01-08T06:51:03.164Z,89.83
2023-01-08T06:53:31.118Z,89.17
2023-01-08T06:55:59.506Z,90.84
2023-01-08T06:58:28.665Z,89.72
2023-01-08T07:00:59.118Z,89.43
2023-01-08T07:03:27.556Z,90.44
2023-01-08T07:05:56.195Z,89.27
2023-01-08T07:08:24.613Z,90.04
2023-01-08T07:10:52.881Z,92.54
2023-01-08T07:13:22.912Z,91.81
2023-01-08T07:15:50.980Z,89.92
2023-01-08T07:18:19.571Z,89.75
2023-01-08T07:20:48.982Z,89.85
2023-01-08T07:23:17.083Z,90.73
2023-01-08T07:25:45.471Z,91.17
2023-01-08T07:28:13.977Z,91.42
2023-01-08T07:30:41.993Z,92.40
2023-01-08T07:33:10.333Z,90.70
2023-01-08T07:35:39.308Z,90.53
2023-01-08T07:38:07.301Z,90.35
2023-01-08T07:40:37.886Z,90.20
2023-01-08T07:43:07.086Z,90.53
2023-01-08T07:45:35.496Z,90.79
2023-01-08T07:48:03.575Z,90.05
2023-01-08T07:50:31.735Z,89.90
2023-01-08T07:53:00.904Z,89.26
2023-01-08T07:55:30.394Z,90.13
2023-01-08T07:57:58.783Z,90.34
2023-01-08T08:00:27.339Z,90.46
2023-01-08T08:02:55.856Z,89.67
2023-01-08T08:05:23.965Z,89.18
2023-01-08T08:07:51.875Z,91.29
2023-01-08T08:10:20.201Z,92.42
2023-01-08T08:12:48.177Z,90.66
2023-01-08T08:15:16.244Z,90.41
2023-01-08T08:17:46.631Z,89.86
2023-01-08T08:20:14.689Z,89.73
2023-01-08T08:22:42.734Z,89.83
2023-01-08T08:25:11.874Z,88.72
2023-01-08T08:27:39.816Z,88.73
2023-01-08T08:30:08.594Z,89.27
2023-01-08T08:32:36.925Z,88.52
2023-01-08T08:35:06.228Z,87.27
2023-01-08T08:37:34.298Z,88.78
2023-01-08T08:40:02.623Z,86.92
2023-01-08T08:42:30.763Z,87.46
2023-01-08T08:44:58.797Z,88.74
2023-01-08T08:47:27.135Z,89.01
2023-01-08T08:49:55.154Z,88.65
2023-01-08T08:52:23.170Z,88.38
2023-01-08T08:54:51.516Z,89.87
2023-01-08T08:57:19.564Z,88.15
2023-01-08T08:59:47.762Z,88.79
2023-01-08T09:02:16.353Z,88.33
2023-01-08T09:04:44.649Z,88.45
2023-01-08T09:07:12.752Z,86.83
2023-01-08T09:09:41.170Z,88.54
2023-01-08T09:12:09.976Z,86.85
2023-01-08T09:14:37.895Z,86.21
2023-01-08T09:17:06.355Z,87.63
2023-01-08T09:19:34.453Z,87.05
2023-01-08T09:22:03.301Z,86.56
2023-01-08T09:24:34.461Z,84.16
2023-01-08T09:27:02.560Z,84.68
2023-01-08T09:29:30.883Z,84.14
2023-01-08T09:32:00.851Z,85.18
2023-01-08T09:34:30.082Z,83.64
2023-01-08T09:36:58.292Z,82.80
2023-01-08T09:39:26.688Z,81.28
2023-01-08T09:41:56.082Z,80.98
2023-01-08T09:44:28.009Z,78.76
2023-01-08T09:46:56.635Z,75.11
2023-01-08T09:49:30.230Z,72.75
2023-01-08T09:51:59.634Z,73.29
2023-01-08T09:54:27.723Z,71.70
2023-01-08T09:56:55.770Z,72.28
2023-01-08T09:59:24.227Z,73.90
2023-01-08T10:01:52.858Z,74.69
2023-01-08T10:04:29.473Z,75.31
2023-01-08T10:07:22.284Z,76.36
2023-01-08T10:09:51.679Z,75.54
2023-01-08T10:12:30.421Z,76.88
2023-01-08T10:15:11.957Z,79.69
2023-01-08T10:17:42.285Z,78.26
2023-01-08T10:20:12.995Z,77.48
2023-01-08T10:22:41.238Z,76.79
2023-01-08T10:25:13.090Z,75.17
2023-01-08T10:27:54.963Z,72.86
2023-01-08T10:30:29.762Z,67.61
2023-01-08T10:33:03.573Z,66.01
2023-01-08T10:35:36.532Z,62.74
2023-01-08T10:38:04.889Z,58.34
2023-01-08T10:40:39.250Z,56.81
2023-01-08T10:43:15.887Z,55.08
2023-01-08T10:45:46.695Z,53.95
2023-01-08T10:48:18.716Z,50.83
2023-01-08T10:50:48.446Z,51.90
2023-01-08T10:53:29.153Z,50.48
2023-01-08T10:56:02.031Z,49.24
2023-01-08T10:58:40.314Z,51.34
2023-01-08T11:01:15.305Z,54.43
2023-01-08T11:03:43.789Z,57.73
2023-01-08T11:06:21.283Z,59.60
2023-01-08T11:08:54.827Z,63.03
2023-01-08T11:11:23.448Z,64.64
2023-01-08T11:13:57.470Z,64.04
2023-01-08T11:16:37.913Z,65.04
2023-01-08T11:19:26.458Z,67.69
2023-01-08T11:22:00.372Z,68.18
2023-01-08T11:24:34.039Z,70.71
2023-01-08T11:27:17.131Z,72.03
2023-01-08T11:30:11.174Z,70.41
2023-01-08T11:32:53.002Z,69.32
2023-01-08T11:35:26.180Z,68.29
2023-01-08T11:37:59.733Z,68.39
2023-01-08T11:40:38.065Z,72.17
2023-01-08T11:43:30.866Z,69.23
2023-01-08T11:46:33.664Z,70.44
2023-01-08T11:49:27.937Z,69.60
2023-01-08T11:52:18.324Z,70.00
2023-01-08T11:54:53.651Z,68.67
2023-01-08T11:57:35.913Z,69.77
2023-01-08T12:00:27.065Z,69.09
2023-01-08T12:03:05.162Z,68.46
2023-01-08T12:06:20.753Z,68.82
2023-01-08T12:09:22.791Z,68.23
2023-01-08T12:12:00.841Z,68.88
2023-01-08T12:14:44.407Z,68.66
2023-01-08T12:17:37.325Z,68.78
2023-01-08T12:20:30.796Z,68.99
2023-01-08T12:23:32.852Z,69.74
2023-01-08T12:26:07.626Z,69.19
2023-01-08T12:28:55.036Z,68.15
2023-01-08T12:31:46.388Z,68.07
2023-01-08T12:34:21.074Z,67.90
2023-01-08T12:36:53.385Z,68.08
2023-01-08T12:39:28.839Z,69.01
2023-01-08T12:42:11.724Z,68.11
2023-01-08T12:44:40.893Z,68.20
2023-01-08T12:47:15.694Z,68.21
2023-01-08T12:49:51.815Z,68.60
2023-01-08T12:52:21.323Z,67.57
2023-01-08T12:55:05.352Z,67.24
2023-01-08T12:57:47.756Z,68.53
2023-01-08T13:00:25.662Z,69.83
2023-01-08T13:03:00.353Z,68.92
2023-01-08T13:05:28.362Z,69.70
2023-01-08T13:08:07.725Z,68.55
2023-01-08T13:10:50.178Z,69.35
2023-01-08T13:13:30.492Z,73.60
2023-01-08T13:16:08.869Z,71.60
2023-01-08T13:18:38.105Z,71.31
2023-01-08T13:21:06.653Z,69.95
2023-01-08T13:23:35.381Z,72.12
2023-01-08T13:26:05.669Z,71.33
2023-01-08T13:29:18.274Z,71.74
2023-01-08T13:31:46.905Z,74.61
2023-01-08T13:34:44.333Z,73.39
2023-01-08T13:37:27.068Z,73.84
2023-01-08T13:39:55.616Z,74.11
2023-01-08T13:42:28.790Z,72.76
2023-01-08T13:45:01.442Z,72.01
2023-01-08T13:47:32.708Z,71.66
2023-01-08T13:50:04.462Z,71.75
2023-01-08T13:52:49.214Z,71.13
2023-01-08T13:55:38.309Z,72.33
2023-01-08T13:58:17.140Z,71.31
2023-01-08T14:00:48.252Z,71.57
2023-01-08T14:03:27.133Z,71.33
2023-01-08T14:06:16.144Z,70.53
2023-01-08T14:08:52.942Z,69.83
2023-01-08T14:11:21.193Z,70.59
2023-01-08T14:13:50.144Z,69.92
2023-01-08T14:16:18.198Z,69.53
2023-01-08T14:18:47.219Z,69.71
2023-01-08T14:21:16.253Z,69.29
2023-01-08T14:23:49.063Z,68.94
2023-01-08T14:26:39.057Z,68.57
2023-01-08T14:29:19.354Z,68.60
2023-01-08T14:31:54.199Z,68.67
2023-01-08T14:34:24.195Z,68.42
2023-01-08T14:36:54.292Z,68.54
2023-01-08T14:39:33.432Z,67.70
2023-01-08T14:42:27.795Z,68.07
2023-01-08T14:45:01.684Z,68.16
2023-01-08T14:47:36.163Z,67.53
2023-01-08T14:50:04.887Z,69.01
2023-01-08T14:52:34.222Z,69.23
2023-01-08T14:55:03.524Z,69.04
2023-01-08T14:57:31.884Z,68.00
2023-01-08T15:00:03.644Z,67.88
2023-01-08T15:02:34.701Z,68.01
2023-01-08T15:05:13.125Z,67.74
2023-01-08T15:07:44.428Z,66.94
2023-01-08T15:10:42.236Z,67.52
2023-01-08T15:13:22.843Z,67.59
2023-01-08T15:16:00.141Z,66.67
2023-01-08T15:18:28.167Z,68.23
2023-01-08T15:20:56.769Z,69.74
2023-01-08T15:23:28.311Z,67.66
2023-01-08T15:25:57.023Z,66.94
2023-01-08T15:28:26.890Z,67.49
2023-01-08T15:30:56.442Z,68.29
2023-01-08T15:33:26.633Z,67.19
2023-01-08T15:35:55.109Z,67.67
2023-01-08T15:38:24.154Z,67.11
2023-01-08T15:40:53.702Z,67.22
2023-01-08T15:43:22.247Z,67.30
2023-01-08T15:45:51.805Z,67.26
2023-01-08T15:48:20.269Z,67.69
2023-01-08T15:50:48.235Z,69.27
2023-01-08T15:53:22.651Z,68.21
2023-01-08T15:55:51.654Z,67.64
2023-01-08T15:58:19.742Z,68.26
2023-01-08T16:00:47.991Z,66.24
2023-01-08T16:03:17.422Z,67.08
2023-01-08T16:05:45.503Z,66.65
2023-01-08T16:08:13.430Z,67.59
2023-01-08T16:10:41.893Z,67.82
2023-01-08T16:13:15.709Z,66.82
2023-01-08T16:15:46.292Z,66.96
2023-01-08T16:18:14.340Z,68.07
2023-01-08T16:20:42.269Z,69.26
2023-01-08T16:23:10.584Z,67.87
2023-01-08T16:25:41.586Z,68.05
2023-01-08T16:28:09.986Z,69.00
2023-01-08T16:30:39.530Z,68.23
2023-01-08T16:33:07.479Z,68.91
2023-01-08T16:35:35.585Z,68.31
2023-01-08T16:38:03.942Z,67.66
2023-01-08T16:40:31.862Z,67.70
2023-01-08T16:43:02.342Z,68.04
2023-01-08T16:45:30.788Z,67.80
2023-01-08T16:47:58.812Z,66.26
2023-01-08T16:50:26.790Z,67.87
2023-01-08T16:52:55.153Z,67.79
2023-01-08T16:55:23.041Z,67.37
2023-01-08T16:57:51.054Z,67.73
2023-01-08T17:00:19.671Z,67.13
2023-01-08T17:02:47.731Z,68.05
2023-01-08T17:05:17.030Z,68.36
2023-01-08T17:07:45.435Z,67.82
2023-01-08T17:10:13.464Z,68.62
2023-01-08T17:12:41.440Z,65.69
2023-01-08T17:15:10.375Z,66.98
2023-01-08T17:17:38.366Z,66.65
2023-01-08T17:20:06.934Z,66.79
2023-01-08T17:22:35.657Z,65.68
2023-01-08T17:25:04.038Z,65.79
2023-01-08T17:27:35.170Z,66.12
2023-01-08T17:30:04.058Z,65.56
2023-01-08T17:32:32.632Z,66.76
2023-01-08T17:35:01.698Z,66.93
2023-01-08T17:37:30.671Z,68.58
2023-01-08T17:40:00.370Z,67.77
2023-01-08T17:42:36.330Z,67.07
2023-01-08T17:45:06.473Z,67.41
2023-01-08T17:47:35.581Z,67.78
2023-01-08T17:50:06.037Z,67.67
2023-01-08T17:52:34.475Z,67.82
2023-01-08T17:55:02.560Z,67.31
2023-01-08T17:57:33.314Z,67.67
2023-01-08T18:00:01.859Z,68.25
2023-01-08T18:02:32.668Z,68.11
2023-01-08T18:05:01.014Z,68.45
2023-01-08T18:07:29.202Z,67.83
2023-01-08T18:09:57.950Z,67.04
2023-01-08T18:12:26.422Z,66.82
2023-01-08T18:14:54.412Z,67.76
2023-01-08T18:17:22.706Z,67.75
2023-01-08T18:19:51.054Z,68.14
2023-01-08T18:22:19.067Z,67.89
2023-01-08T18:24:47.034Z,68.18
2023-01-08T18:27:15.441Z,68.54
2023-01-08T18:29:43.432Z,68.57
2023-01-08T18:32:11.468Z,69.53
2023-01-08T18:34:40.655Z,68.74
2023-01-08T18:37:08.876Z,68.74
2023-01-08T18:39:37.100Z,67.97
2023-01-08T18:42:24.321Z,69.57
2023-01-08T18:44:55.502Z,69.22
2023-01-08T18:47:25.720Z,69.36
2023-01-08T18:49:59.270Z,68.63
2023-01-08T18:52:27.661Z,68.71
2023-01-08T18:54:55.798Z,67.98
2023-01-08T18:57:23.807Z,69.42
2023-01-08T18:59:52.157Z,68.41
2023-01-08T19:02:27.218Z,70.48
2023-01-08T19:04:55.771Z,70.14
2023-01-08T19:07:23.733Z,70.42
2023-01-08T19:09:51.964Z,70.34
2023-01-08T19:12:20.392Z,70.66
2023-01-08T19:14:48.461Z,70.86
2023-01-08T19:17:16.593Z,70.30
2023-01-08T19:19:45.094Z,71.61
2023-01-08T19:22:13.042Z,72.27
2023-01-08T19:24:41.142Z,71.04
2023-01-08T19:27:09.533Z,71.12
2023-01-08T19:29:37.728Z,71.64
2023-01-08T19:32:07.144Z,72.21
2023-01-08T19:34:35.664Z,71.93
2023-01-08T19:37:03.796Z,70.80
2023-01-08T19:39:31.941Z,70.54
2023-01-08T19:42:19.426Z,72.39
2023-01-08T19:44:47.595Z,72.76
2023-01-08T19:47:16.096Z,72.11
2023-01-08T19:49:47.816Z,71.56
2023-01-08T19:52:17.086Z,72.26
2023-01-08T19:54:45.661Z,73.08
2023-01-08T19:57:13.851Z,72.77
2023-01-08T19:59:42.421Z,72.42
2023-01-08T20:02:10.713Z,72.05
2023-01-08T20:04:44.924Z,72.66
2023-01-08T20:07:13.670Z,72.99
2023-01-08T20:09:42.975Z,73.06
2023-01-08T20:12:11.622Z,72.28
2023-01-08T20:14:39.699Z,72.28
2023-01-08T20:17:08.483Z,71.29
2023-01-08T20:19:37.138Z,72.28
2023-01-08T20:22:05.220Z,72.32
2023-01-08T20:24:33.629Z,74.04
2023-01-08T20:27:01.551Z,73.77
2023-01-08T20:29:29.698Z,72.46
2023-01-08T20:31:59.660Z,72.02
2023-01-08T20:34:28.026Z,72.68
2023-01-08T20:36:56.656Z,73.24
2023-01-08T20:39:25.600Z,73.39
2023-01-08T20:41:55.802Z,74.44
2023-01-08T20:44:33.206Z,74.81
2023-01-08T20:47:02.139Z,73.21
2023-01-08T20:49:30.199Z,75.57
2023-01-08T20:52:00.331Z,73.93
2023-01-08T20:54:30.184Z,74.81
2023-01-08T20:56:59.429Z,74.81
2023-01-08T20:59:28.220Z,74.67
2023-01-08T21:01:57.351Z,73.82
2023-01-08T21:04:25.811Z,75.61
2023-01-08T21:06:53.891Z,75.89
2023-01-08T21:09:21.829Z,73.47
2023-01-08T21:11:50.972Z,75.17
2023-01-08T21:14:18.899Z,74.20
2023-01-08T21:16:46.971Z,75.31
2023-01-08T21:19:15.611Z,75.36
2023-01-08T21:21:43.982Z,75.69
2023-01-08T21:24:13.038Z,76.62
2023-01-08T21:26:41.453Z,76.24
2023-01-08T21:29:10.501Z,74.89
2023-01-08T21:31:39.211Z,75.45
2023-01-08T21:34:09.063Z,74.80
2023-01-08T21:36:39.353Z,75.95
2023-01-08T21:39:07.782Z,75.15
2023-01-08T21:41:54.474Z,76.19
2023-01-08T21:44:43.289Z,74.67
2023-01-08T21:47:17.645Z,77.02
2023-01-08T21:49:46.355Z,75.72
2023-01-08T21:52:33.349Z,75.24
2023-01-08T21:55:02.626Z,74.99
2023-01-08T21:57:30.670Z,75.01
2023-01-08T21:59:58.727Z,76.81
2023-01-08T22:02:27.046Z,75.06
2023-01-08T22:04:56.439Z,77.43
2023-01-08T22:07:25.515Z,76.07
2023-01-08T22:09:53.613Z,75.71
2023-01-08T22:12:23.103Z,76.26
2023-01-08T22:14:55.884Z,76.33
2023-01-08T22:17:25.630Z,75.40
2023-01-08T22:19:54.388Z,77.16
2023-01-08T22:22:22.367Z,76.17
2023-01-08T22:24:52.489Z,76.46
2023-01-08T22:27:21.885Z,76.14
2023-01-08T22:29:50.420Z,75.71
2023-01-08T22:32:18.520Z,74.49
2023-01-08T22:34:46.897Z,74.97
2023-01-08T22:37:17.076Z,76.06
2023-01-08T22:39:46.344Z,74.07
2023-01-08T22:42:14.537Z,74.53
2023-01-08T22:44:42.960Z,75.52
2023-01-08T22:47:11.039Z,74.71
2023-01-08T22:49:39.150Z,75.52
2023-01-08T22:52:08.598Z,75.08
2023-01-08T22:54:37.753Z,75.95
2023-01-08T22:57:06.085Z,76.75
2023-01-08T22:59:34.595Z,77.66
2023-01-08T23:02:02.609Z,76.71
2023-01-08T23:04:30.588Z,75.27
2023-01-08T23:06:58.789Z,76.33
2023-01-08T23:09:26.900Z,76.75
2023-01-08T23:11:54.900Z,75.64
2023-01-08T23:14:23.249Z,75.50
2023-01-08T23:16:51.287Z,76.21
2023-01-08T23:19:19.308Z,75.39
2023-01-08T23:21:47.770Z,75.47
2023-01-08T23:24:15.801Z,76.40
2023-01-08T23:26:44.051Z,75.86
2023-01-08T23:29:12.391Z,75.64
2023-01-08T23:31:41.363Z,76.52
2023-01-08T23:34:09.386Z,75.55
2023-01-08T23:36:37.910Z,76.40
2023-01-08T23:39:05.889Z,74.87
2023-01-08T23:41:35.068Z,74.28
2023-01-08T23:44:09.232Z,76.18
2023-01-08T23:46:37.837Z,76.73
2023-01-08T23:49:07.488Z,76.48
2023-01-08T23:51:35.839Z,75.98
2023-01-08T23:54:03.930Z,75.14
2023-01-08T23:56:32.320Z,75.71
2023-01-08T23:59:00.415Z,76.48
